Jackson Hole (JAC/KJAC)

Map

Information

Location
Jackson Hole, WY
Local Time
07:11 / 7:11 am
GMT Time
14:11 / 2:11 pm
Gates
Unassigned
No FAA reported delays
METAR
TAF KJAC 221313Z 2213/2312 24006KT 5SM -SN BR SCT012 OVC025 FM221500 VRB05KT P6SM VCFG FEW005 SCT035 FM222100 20010KT 6SM -SN BKN040 FM230000 20008KT 1SM -SN OVC020 AMD LTD TO CLD VIS AND WIND
  • No charts available